Time;durP1;ratioP1;P1;durP2;ratioP2;P2;SDS_P1;SDS_P2;PMS_P1;PMS_P2;Temp;Humidity;BMP_temperature;BMP_pressure;BME280_temperature;BME280_humidity;BME280_pressure;Samples;Min_cycle;Max_cycle;Signal;HPM_P1;HPM_P2
2022/05/18 00:00:28;;;;;;;5.97;5.20;;;;;;;17.26;100.00;62643.13;5092471;28;20222;-73
2022/05/18 00:02:56;;;;;;;7.63;4.80;;;;;;;17.16;100.00;62639.53;5092795;28;20676;-74
2022/05/18 00:05:26;;;;;;;8.03;4.90;;;;;;;17.13;100.00;62631.66;5092513;28;20223;-74
2022/05/18 00:07:55;;;;;;;4.87;4.47;;;;;;;17.39;100.00;62659.16;5092577;28;20203;-73
2022/05/18 00:10:22;;;;;;;7.87;4.50;;;;;;;17.36;100.00;62655.94;5092340;28;20659;-72
2022/05/18 00:12:51;;;;;;;4.73;4.30;;;;;;;17.33;100.00;62653.22;5092405;28;20203;-74
2022/05/18 00:15:19;;;;;;;4.77;4.27;;;;;;;17.31;100.00;62651.06;5092333;28;20298;-74
2022/05/18 00:17:47;;;;;;;5.80;4.80;;;;;;;17.32;100.00;62651.63;5092364;28;20191;-74
2022/05/18 00:20:14;;;;;;;4.83;4.40;;;;;;;17.22;100.00;62641.38;5092697;28;20192;-73
2022/05/18 00:22:47;;;;;;;5.93;4.30;;;;;;;17.20;100.00;62641.81;5092505;28;20196;-73
2022/05/18 00:25:18;;;;;;;5.33;4.60;;;;;;;17.15;100.00;62633.81;5092093;28;20203;-73
2022/05/18 00:27:45;;;;;;;5.20;4.70;;;;;;;17.21;100.00;62645.44;5074131;28;20203;-74
2022/05/18 00:30:14;;;;;;;5.90;4.67;;;;;;;17.25;100.00;62644.06;5092100;28;20264;-73
2022/05/18 00:32:41;;;;;;;8.17;5.37;;;;;;;17.04;100.00;62627.13;5091822;28;20219;-74
2022/05/18 00:35:10;;;;;;;7.23;4.93;;;;;;;17.08;100.00;62630.91;5093730;28;20192;-73
2022/05/18 00:37:38;;;;;;;5.80;4.60;;;;;;;16.89;100.00;62608.38;5093651;28;20195;-74
2022/05/18 00:40:06;;;;;;;7.10;4.87;;;;;;;16.90;100.00;62606.88;5092236;28;20694;-74
2022/05/18 00:42:35;;;;;;;5.23;4.70;;;;;;;16.96;100.00;62618.50;5091766;28;20686;-73
2022/05/18 00:45:02;;;;;;;5.37;4.87;;;;;;;16.85;100.00;62604.06;5092355;28;20272;-74
2022/05/18 00:47:29;;;;;;;7.27;5.37;;;;;;;16.90;100.00;62607.41;5091947;28;20227;-73
2022/05/18 00:49:59;;;;;;;5.50;5.00;;;;;;;17.02;100.00;62619.81;5092094;28;20209;-73
2022/05/18 00:52:34;;;;;;;6.73;6.07;;;;;;;16.92;100.00;62614.19;5083751;28;20674;-74
2022/05/18 00:55:02;;;;;;;9.60;5.20;;;;;;;16.74;100.00;62590.16;5083086;28;20693;-74
2022/05/18 00:57:33;;;;;;;5.47;4.83;;;;;;;16.42;100.00;62557.72;5092146;28;20199;-72
2022/05/18 01:00:06;;;;;;;6.37;5.20;;;;;;;16.76;100.00;62594.38;5092234;28;20207;-74
2022/05/18 01:02:36;;;;;;;9.33;5.00;;;;;;;16.70;100.00;62587.91;5071925;28;20200;-74
2022/05/18 01:05:06;;;;;;;6.37;5.17;;;;;;;16.69;100.00;62586.81;5071594;28;20276;-74
2022/05/18 01:07:38;;;;;;;7.93;5.70;;;;;;;16.65;100.00;62579.94;5071610;28;20598;-73
2022/05/18 01:10:06;;;;;;;5.63;5.07;;;;;;;16.72;100.00;62592.63;5084489;28;20199;-74
2022/05/18 01:12:34;;;;;;;6.13;5.53;;;;;;;16.69;100.00;62584.25;5093039;28;20204;-73
2022/05/18 01:15:06;;;;;;;6.27;5.67;;;;;;;16.58;100.00;62578.06;5095912;28;20288;-73
2022/05/18 01:17:35;;;;;;;5.60;5.00;;;;;;;16.60;100.00;62579.69;5095863;28;20642;-74
2022/05/18 01:20:05;;;;;;;7.67;5.10;;;;;;;16.44;100.00;62562.97;5095664;28;20192;-73
2022/05/18 01:22:43;;;;;;;6.43;5.53;;;;;;;16.52;100.00;62565.94;5096082;28;20195;-73
2022/05/18 01:25:23;;;;;;;6.53;5.93;;;;;;;16.46;100.00;62562.03;5095925;28;20248;-73
2022/05/18 01:27:57;;;;;;;6.53;5.77;;;;;;;16.49;100.00;62563.22;5095243;28;20231;-73
2022/05/18 01:30:24;;;;;;;6.00;5.40;;;;;;;16.45;100.00;62560.94;5095536;28;20248;-73
2022/05/18 01:32:55;;;;;;;6.73;5.50;;;;;;;16.45;100.00;62560.94;5095280;28;20268;-74
2022/05/18 01:35:24;;;;;;;7.30;5.97;;;;;;;16.45;100.00;62558.91;5095267;28;20662;-73
2022/05/18 01:37:57;;;;;;;6.10;5.40;;;;;;;16.44;100.00;62559.88;5095346;28;20203;-75
2022/05/18 01:40:30;;;;;;;6.23;5.53;;;;;;;16.43;100.00;62556.22;5095194;28;20231;-74
2022/05/18 01:43:06;;;;;;;6.83;6.10;;;;;;;16.35;100.00;62547.59;5095247;28;20252;-75
2022/05/18 01:45:33;;;;;;;7.63;5.90;;;;;;;16.38;100.00;62551.34;5095377;28;20207;-74
2022/05/18 01:48:09;;;;;;;6.67;5.93;;;;;;;16.36;100.00;62551.78;5095337;28;20252;-72
2022/05/18 01:50:37;;;;;;;6.50;5.90;;;;;;;16.33;100.00;62550.56;5095385;28;20195;-75
2022/05/18 01:53:05;;;;;;;6.60;6.00;;;;;;;16.22;100.00;62538.72;5095101;28;20192;-73
2022/05/18 01:55:33;;;;;;;5.93;5.37;;;;;;;16.25;100.00;62536.81;5095027;28;20199;-73
2022/05/18 01:58:02;;;;;;;6.53;5.93;;;;;;;15.64;100.00;62477.34;5095355;28;20737;-74
2022/05/18 02:00:31;;;;;;;8.57;6.20;;;;;;;16.31;100.00;62545.84;5076956;28;20195;-73
2022/05/18 02:02:58;;;;;;;6.77;6.10;;;;;;;16.34;100.00;62546.53;5094924;28;20200;-72
2022/05/18 02:05:25;;;;;;;7.77;5.80;;;;;;;16.23;100.00;62539.81;5094817;28;20680;-74
2022/05/18 02:07:57;;;;;;;5.97;5.47;;;;;;;16.30;100.00;62542.72;5094590;28;20227;-74
2022/05/18 02:10:24;;;;;;;8.53;6.23;;;;;;;16.30;100.00;62542.22;5094443;28;20721;-73
2022/05/18 02:12:52;;;;;;;6.80;6.20;;;;;;;15.86;100.00;62501.03;5094873;28;20207;-72
2022/05/18 02:15:22;;;;;;;10.93;6.10;;;;;;;16.06;100.00;62522.03;5094791;28;20200;-73
2022/05/18 02:17:50;;;;;;;7.97;6.23;;;;;;;16.18;100.00;62529.81;5094569;28;20720;-73
2022/05/18 02:20:17;;;;;;;7.57;6.60;;;;;;;16.41;100.00;62557.16;5094444;28;20203;-73
2022/05/18 02:22:44;;;;;;;7.00;5.60;;;;;;;16.38;100.00;62550.81;5094850;28;20659;-72
2022/05/18 02:25:11;;;;;;;11.50;5.60;;;;;;;16.34;100.00;62551.66;5093024;28;20257;-74
2022/05/18 02:27:38;;;;;;;6.73;5.50;;;;;;;16.34;100.00;62544.47;5093019;28;20234;-73
2022/05/18 02:30:08;;;;;;;7.37;5.60;;;;;;;16.18;100.00;62529.28;5094526;28;20264;-73
2022/05/18 02:32:37;;;;;;;6.20;5.60;;;;;;;16.43;100.00;62561.34;5094177;28;20663;-73
2022/05/18 02:35:05;;;;;;;6.60;5.67;;;;;;;16.36;100.00;62554.34;5094142;28;20195;-74
2022/05/18 02:37:32;;;;;;;6.60;5.10;;;;;;;16.30;100.00;62545.31;5094513;28;20200;-72
2022/05/18 02:39:59;;;;;;;5.93;5.07;;;;;;;16.40;100.00;62558.13;5097467;28;20292;-73
2022/05/18 02:42:27;;;;;;;5.87;5.23;;;;;;;16.50;100.00;62568.94;5094383;28;20204;-73
2022/05/18 02:44:55;;;;;;;6.53;4.77;;;;;;;16.48;100.00;62564.69;5094114;28;20217;-71
2022/05/18 02:47:23;;;;;;;4.53;4.13;;;;;;;16.42;100.00;62557.72;5093714;28;20230;-73
2022/05/18 02:49:51;;;;;;;4.53;4.07;;;;;;;16.45;100.00;62563.50;5093588;28;20191;-74
2022/05/18 02:52:18;;;;;;;7.00;3.90;;;;;;;16.50;100.00;62568.94;5094128;28;20651;-74
2022/05/18 02:57:31;;;;;;;6.13;4.20;;;;;;;16.65;100.00;62579.94;5095727;28;20663;-74
2022/05/18 02:59:58;;;;;;;4.20;3.60;;;;;;;16.42;100.00;62560.28;5093837;28;20216;-73
2022/05/18 03:02:25;;;;;;;6.77;3.63;;;;;;;16.74;100.00;62587.59;5093806;28;20661;-73
2022/05/18 03:04:53;;;;;;;4.47;3.77;;;;;;;16.74;100.00;62589.63;5094208;28;20340;-73
2022/05/18 03:07:20;;;;;;;4.27;3.67;;;;;;;16.72;100.00;62587.50;5093792;28;20227;-74
2022/05/18 03:09:48;;;;;;;8.27;3.77;;;;;;;16.51;100.00;62570.00;5093565;28;20200;-74
2022/05/18 03:12:19;;;;;;;3.60;3.30;;;;;;;16.90;100.00;62606.88;5093543;28;20196;-74
2022/05/18 03:14:45;;;;;;;5.53;3.60;;;;;;;16.56;100.00;62570.25;5093417;28;20195;-73
2022/05/18 03:17:13;;;;;;;3.53;3.23;;;;;;;16.98;100.00;62614.97;5093881;28;20196;-75
2022/05/18 03:19:40;;;;;;;3.97;3.30;;;;;;;16.93;100.00;62612.69;5093420;28;20704;-74
2022/05/18 03:24:52;;;;;;;3.93;3.20;;;;;;;16.86;100.00;62605.16;5093452;28;20684;-73
2022/05/18 03:27:20;;;;;;;5.30;3.60;;;;;;;16.86;100.00;62607.72;5093132;28;20231;-75
2022/05/18 03:29:48;;;;;;;4.67;3.70;;;;;;;16.87;100.00;62603.66;5093355;28;20195;-73
2022/05/18 03:32:15;;;;;;;6.30;3.90;;;;;;;16.94;100.00;62616.34;5093363;28;20211;-72
2022/05/18 03:34:43;;;;;;;6.40;3.77;;;;;;;16.77;100.00;62592.88;5092922;28;20308;-74
2022/05/18 03:37:13;;;;;;;4.40;4.00;;;;;;;17.14;100.00;62635.34;5093105;28;20207;-75
2022/05/18 03:39:40;;;;;;;5.63;4.03;;;;;;;17.13;100.00;62631.66;5092984;28;20235;-74
2022/05/18 03:42:08;;;;;;;5.47;4.57;;;;;;;17.06;100.00;62623.59;5092851;28;20686;-72
2022/05/18 03:44:35;;;;;;;6.17;4.70;;;;;;;17.18;100.00;62634.50;5093182;28;20282;-72
2022/05/18 03:47:02;;;;;;;7.10;4.97;;;;;;;17.28;100.00;62652.47;5092984;28;20641;-74
2022/05/18 03:49:29;;;;;;;5.57;4.80;;;;;;;17.27;100.00;62648.78;5092972;28;20199;-73
2022/05/18 03:51:55;;;;;;;5.20;4.70;;;;;;;17.33;100.00;62650.66;5092638;28;20599;-73
2022/05/18 03:54:24;;;;;;;6.57;5.20;;;;;;;17.43;100.00;62664.03;5092599;28;20207;-74
2022/05/18 03:56:51;;;;;;;6.73;4.90;;;;;;;17.21;100.00;62640.28;5074681;28;20200;-73
2022/05/18 03:59:18;;;;;;;7.47;4.80;;;;;;;17.30;100.00;62652.03;5092521;28;20662;-73
2022/05/18 04:01:45;;;;;;;5.93;4.80;;;;;;;17.34;100.00;62654.31;5092570;28;20268;-72
2022/05/18 04:04:11;;;;;;;8.37;4.80;;;;;;;17.34;100.00;62664.63;5092627;28;20341;-73
2022/05/18 04:06:38;;;;;;;6.60;5.17;;;;;;;17.43;100.00;62666.06;5092286;28;20698;-74
2022/05/18 04:09:05;;;;;;;6.33;5.40;;;;;;;17.43;100.00;62664.03;5092267;28;20203;-74
2022/05/18 04:11:34;;;;;;;7.50;5.30;;;;;;;17.64;100.00;62686.69;5092546;28;20204;-74
2022/05/18 04:14:00;;;;;;;6.10;5.50;;;;;;;17.60;100.00;62684.97;5091959;28;20211;-73
2022/05/18 04:16:27;;;;;;;6.77;5.50;;;;;;;17.70;100.00;62698.31;5092390;28;20192;-74
2022/05/18 04:18:54;;;;;;;8.07;5.90;;;;;;;17.77;100.00;62702.22;5092233;28;20641;-74
2022/05/18 04:21:21;;;;;;;7.00;5.77;;;;;;;17.82;100.00;62707.59;5091996;28;20221;-73
2022/05/18 04:23:49;;;;;;;9.10;5.90;;;;;;;17.09;100.00;62632.50;5092120;28;20199;-73
2022/05/18 04:26:16;;;;;;;8.17;5.43;;;;;;;17.81;100.00;62709.13;5092138;28;20667;-73
2022/05/18 04:28:46;;;;;;;10.97;6.47;;;;;;;17.82;100.00;62710.19;5091909;28;20652;-73
2022/05/18 04:31:12;;;;;;;8.33;5.70;;;;;;;17.91;100.00;62714.75;5091957;28;20277;-75
2022/05/18 04:33:40;;;;;;;8.10;5.60;;;;;;;18.02;100.00;62731.75;5092018;28;20597;-72
2022/05/18 04:36:07;;;;;;;7.70;6.40;;;;;;;18.11;100.00;62741.50;5092219;28;20287;-74
2022/05/18 04:38:34;;;;;;;6.73;5.50;;;;;;;17.95;100.00;62719.59;5092015;28;20235;-74
2022/05/18 04:41:03;;;;;;;9.47;5.87;;;;;;;17.52;100.00;62673.75;5092248;28;20318;-72
2022/05/18 04:43:32;;;;;;;7.23;5.80;;;;;;;17.82;100.00;62707.59;5094947;28;20199;-74
2022/05/18 04:46:01;;;;;;;7.20;5.60;;;;;;;17.80;100.00;62705.44;5092172;28;20290;-72
2022/05/18 04:48:30;;;;;;;7.90;5.27;;;;;;;17.68;100.00;62696.16;5090535;28;20271;-72
2022/05/18 04:50:58;;;;;;;7.87;5.73;;;;;;;17.74;100.00;62699.53;5091812;28;20290;-74
2022/05/18 04:53:25;;;;;;;8.20;5.50;;;;;;;17.66;100.00;62691.44;5092011;28;20199;-73
2022/05/18 04:55:51;;;;;;;8.27;5.97;;;;;;;17.39;100.00;62664.84;5091139;28;20199;-73
2022/05/18 04:58:18;;;;;;;6.73;5.90;;;;;;;17.77;100.00;62705.31;5092034;28;20200;-72
2022/05/18 05:00:49;;;;;;;7.17;6.47;;;;;;;17.78;100.00;62705.88;5091460;28;20217;-74
2022/05/18 05:03:17;;;;;;;9.00;7.20;;;;;;;17.77;100.00;62697.59;5092086;28;20333;-74
2022/05/18 05:05:44;;;;;;;8.10;6.40;;;;;;;17.86;100.00;62712.47;5091531;28;20195;-73
2022/05/18 05:08:12;;;;;;;8.77;7.30;;;;;;;18.03;100.00;62727.69;5091509;28;20722;-76
2022/05/18 05:10:42;;;;;;;8.03;7.00;;;;;;;18.03;100.00;62727.69;5091537;28;20195;-73
2022/05/18 05:13:09;;;;;;;8.37;6.93;;;;;;;18.06;100.00;62733.50;5091395;28;20299;-74
2022/05/18 05:15:37;;;;;;;9.73;7.07;;;;;;;18.08;100.00;62733.09;5091917;28;20299;-74
2022/05/18 05:18:04;;;;;;;9.53;7.47;;;;;;;18.04;100.00;62728.75;5091565;28;20199;-73
2022/05/18 05:20:33;;;;;;;10.13;6.90;;;;;;;18.08;100.00;62733.63;5091791;28;20200;-73
2022/05/18 05:23:00;;;;;;;8.63;7.00;;;;;;;18.15;100.00;62738.06;5091495;28;20203;-74
2022/05/18 05:25:27;;;;;;;8.33;7.17;;;;;;;18.06;100.00;62733.50;5091577;28;20264;-73
2022/05/18 05:27:55;;;;;;;9.93;8.30;;;;;;;18.07;100.00;62737.16;5091465;28;20698;-74
2022/05/18 05:30:22;;;;;;;8.67;7.63;;;;;;;18.03;100.00;62730.28;5091371;28;20210;-73
2022/05/18 05:32:49;;;;;;;12.03;8.50;;;;;;;18.08;100.00;62735.66;5091189;28;20245;-73
2022/05/18 05:35:16;;;;;;;11.57;9.07;;;;;;;18.06;100.00;62730.94;5091389;28;20256;-74
2022/05/18 05:37:44;;;;;;;10.37;8.40;;;;;;;18.13;100.00;62744.16;5091311;28;20265;-73
2022/05/18 05:40:12;;;;;;;10.80;9.40;;;;;;;18.12;100.00;62732.25;5091401;28;20231;-74
2022/05/18 05:42:40;;;;;;;17.97;8.90;;;;;;;18.11;100.00;62738.91;5091158;28;20196;-73
2022/05/18 05:45:10;;;;;;;10.37;9.07;;;;;;;17.55;100.00;62682.13;5091437;28;20199;-74
2022/05/18 05:47:36;;;;;;;12.73;9.17;;;;;;;17.96;100.00;62720.13;5091281;28;20250;-73
2022/05/18 05:50:05;;;;;;;11.07;9.87;;;;;;;17.91;100.00;62714.75;5091268;28;20204;-73
2022/05/18 05:52:33;;;;;;;12.20;9.73;;;;;;;18.00;100.00;62721.88;5091176;28;20695;-74
2022/05/18 05:55:02;;;;;;;15.07;9.27;;;;;;;18.07;100.00;62734.59;5090940;28;20196;-73
2022/05/18 05:57:29;;;;;;;16.43;12.73;;;;;;;17.96;100.00;62722.72;5091463;28;20196;-73
2022/05/18 05:59:56;;;;;;;12.03;8.97;;;;;;;17.73;100.00;62695.34;5094498;28;20195;-72
2022/05/18 06:02:23;;;;;;;10.80;9.03;;;;;;;17.59;100.00;62681.28;5095050;28;20225;-75
2022/05/18 06:04:50;;;;;;;12.83;8.47;;;;;;;17.11;100.00;62634.13;5094610;28;20282;-74
2022/05/18 06:07:16;;;;;;;11.67;8.60;;;;;;;17.32;100.00;62652.16;5094877;28;20269;-74
2022/05/18 06:09:43;;;;;;;11.23;9.33;;;;;;;17.35;100.00;62655.41;5094612;28;20245;-74
2022/05/18 06:12:12;;;;;;;10.00;8.60;;;;;;;17.33;100.00;62655.28;5094962;28;20195;-75
2022/05/18 06:14:39;;;;;;;14.17;10.07;;;;;;;17.31;100.00;62651.06;5094942;28;20199;-75
2022/05/18 06:17:08;;;;;;;11.00;8.77;;;;;;;17.24;100.00;62643.00;5094694;28;20196;-75
2022/05/18 06:19:35;;;;;;;11.67;8.70;;;;;;;17.15;100.00;62633.81;5094709;28;20590;-74
2022/05/18 06:22:03;;;;;;;10.73;8.93;;;;;;;16.96;100.00;62613.34;5094594;28;20682;-74
2022/05/18 06:24:29;;;;;;;10.30;8.67;;;;;;;17.05;100.00;62620.47;5094577;28;20196;-74
2022/05/18 06:26:58;;;;;;;12.10;8.13;;;;;;;16.79;100.00;62600.72;5094768;28;20249;-74
2022/05/18 06:29:27;;;;;;;15.90;10.97;;;;;;;16.95;100.00;62612.25;5094744;28;20227;-76
2022/05/18 06:31:54;;;;;;;10.70;8.83;;;;;;;16.69;100.00;62586.81;5096064;28;20246;-76
2022/05/18 06:34:22;;;;;;;11.30;8.23;;;;;;;16.74;100.00;62592.22;5095307;28;20199;-76
2022/05/18 06:36:49;;;;;;;9.67;8.00;;;;;;;16.77;100.00;62590.28;5094582;28;20195;-74
2022/05/18 06:39:18;;;;;;;9.43;7.20;;;;;;;16.75;100.00;62586.09;5094105;28;20231;-75
2022/05/18 06:41:45;;;;;;;11.03;8.37;;;;;;;16.73;100.00;62588.56;5094357;28;20199;-74
2022/05/18 06:44:13;;;;;;;9.90;7.97;;;;;;;16.73;100.00;62589.09;5097507;28;20203;-72
2022/05/18 06:46:42;;;;;;;9.93;7.87;;;;;;;16.86;100.00;62600.00;5100753;28;20257;-74
2022/05/18 06:49:11;;;;;;;8.07;6.87;;;;;;;16.60;100.00;62577.13;5094338;28;20228;-74
2022/05/18 06:51:41;;;;;;;10.50;6.97;;;;;;;16.86;100.00;62602.56;5094215;28;20249;-74
2022/05/18 06:54:08;;;;;;;11.10;7.50;;;;;;;16.45;100.00;62563.50;5094506;28;20257;-73
2022/05/18 06:56:37;;;;;;;7.43;6.50;;;;;;;16.89;100.00;62605.81;5094535;28;20196;-73
2022/05/18 06:59:04;;;;;;;11.07;7.80;;;;;;;16.92;100.00;62609.03;5094307;28;20340;-74
2022/05/18 07:01:32;;;;;;;10.20;7.20;;;;;;;16.95;100.00;62617.41;5093804;28;20191;-74
2022/05/18 07:04:03;;;;;;;8.33;7.20;;;;;;;17.03;100.00;62623.47;5094208;28;20200;-74
2022/05/18 07:06:33;;;;;;;11.07;7.53;;;;;;;17.18;100.00;62634.50;5094366;28;20231;-74
2022/05/18 07:09:00;;;;;;;9.53;7.73;;;;;;;17.38;100.00;62658.63;5094023;28;20231;-73
2022/05/18 07:11:27;;;;;;;10.60;7.80;;;;;;;17.44;100.00;62670.25;5093078;28;20249;-74
2022/05/18 07:13:55;;;;;;;15.53;8.37;;;;;;;17.64;100.00;62688.72;5093556;28;20268;-73
2022/05/18 07:16:24;;;;;;;13.50;7.67;;;;;;;17.73;100.00;62695.34;5093558;28;20252;-74
2022/05/18 07:18:51;;;;;;;12.93;8.00;;;;;;;17.80;100.00;62703.41;5093598;28;20196;-73
2022/05/18 07:21:20;;;;;;;13.30;8.27;;;;;;;17.94;100.00;62715.41;5093818;28;20264;-75
2022/05/18 07:23:48;;;;;;;18.43;8.20;;;;;;;18.05;100.00;62729.84;5093324;28;20204;-74
2022/05/18 07:26:17;;;;;;;10.30;7.57;;;;;;;18.17;100.00;62742.81;5093259;28;20204;-74
2022/05/18 07:28:45;;;;;;;9.83;8.23;;;;;;;18.20;100.00;62746.03;5093118;28;20231;-73
2022/05/18 07:31:12;;;;;;;11.97;8.23;;;;;;;18.32;100.00;62759.53;5092904;28;20219;-74
2022/05/18 07:33:40;;;;;;;11.60;8.73;;;;;;;18.17;100.00;62742.81;5093065;28;20677;-75
2022/05/18 07:36:07;;;;;;;11.67;7.87;;;;;;;18.17;100.00;62747.97;5093108;28;20732;-74
2022/05/18 07:38:38;;;;;;;9.73;8.00;;;;;;;18.17;100.00;62745.38;5093051;28;20264;-74
2022/05/18 07:41:07;;;;;;;11.53;7.90;;;;;;;17.98;100.00;62722.28;5092935;28;20195;-73
2022/05/18 07:43:34;;;;;;;11.53;8.20;;;;;;;18.15;100.00;62745.81;5092910;28;20280;-75
2022/05/18 07:46:01;;;;;;;8.93;7.77;;;;;;;18.20;100.00;62743.44;5092778;28;20200;-73
2022/05/18 07:48:29;;;;;;;9.80;7.13;;;;;;;18.32;100.00;62761.56;5092561;28;20223;-73
2022/05/18 07:50:57;;;;;;;10.27;8.03;;;;;;;18.35;100.00;62762.22;5093049;28;20232;-74
2022/05/18 07:53:24;;;;;;;11.37;8.60;;;;;;;18.42;100.00;62770.31;5092745;28;20279;-73
2022/05/18 07:55:53;;;;;;;12.03;8.23;;;;;;;18.46;100.00;62774.13;5074189;28;20617;-73
2022/05/18 07:58:21;;;;;;;11.90;7.77;;;;;;;18.32;100.00;62761.56;5092892;28;20261;-74
2022/05/18 08:00:48;;;;;;;12.70;8.03;;;;;;;18.50;100.00;62775.84;5092400;28;20741;-74
2022/05/18 08:03:15;;;;;;;13.80;8.70;;;;;;;18.30;100.00;62757.38;5092576;28;20581;-74
2022/05/18 08:05:45;;;;;;;7.93;7.13;;;;;;;18.37;100.00;62764.38;5092475;28;20199;-76
2022/05/18 08:08:16;;;;;;;12.83;8.53;;;;;;;18.36;100.00;62763.31;5092470;28;20277;-74
2022/05/18 08:16:14;;;;;;;9.23;8.23;;;;;;;18.93;100.00;62826.91;5092546;28;20266;-73
2022/05/18 08:18:41;;;;;;;15.23;9.27;;;;;;;19.15;100.00;62848.63;5092026;28;20573;-74
2022/05/18 08:21:09;;;;;;;10.03;8.70;;;;;;;19.12;100.00;62847.97;5092008;28;20634;-74
2022/05/18 08:23:36;;;;;;;10.80;8.47;;;;;;;18.80;100.00;62813.41;5092086;28;20241;-74
2022/05/18 08:26:03;;;;;;;12.47;8.20;;;;;;;19.01;100.00;62832.97;5092252;28;20207;-73
2022/05/18 08:28:33;;;;;;;9.53;7.70;;;;;;;19.03;100.00;62832.53;5092168;28;20227;-73
2022/05/18 08:31:01;;;;;;;9.50;8.13;;;;;;;18.98;100.00;62825.09;5092020;28;20646;-72
2022/05/18 08:33:31;;;;;;;12.50;8.60;;;;;;;19.36;100.00;62871.31;5092025;28;20199;-73
2022/05/18 08:35:59;;;;;;;13.70;8.67;;;;;;;19.44;100.00;62878.91;5091815;28;20196;-74
2022/05/18 08:38:26;;;;;;;9.23;8.30;;;;;;;19.35;100.00;62872.84;5092204;28;20204;-73
2022/05/18 08:40:59;;;;;;;14.10;7.77;;;;;;;19.47;100.00;62880.09;5091897;28;20316;-73
2022/05/18 08:43:30;;;;;;;10.53;7.60;;;;;;;19.40;100.00;62879.75;5091440;28;20252;-75
2022/05/18 08:46:04;;;;;;;11.27;7.93;;;;;;;19.49;100.00;62887.44;5093486;28;20195;-72
2022/05/18 08:48:42;;;;;;;10.73;7.50;;;;;;;19.59;100.00;62897.69;5092153;28;20230;-75
2022/05/18 08:51:21;;;;;;;9.63;7.40;;;;;;;19.55;100.00;62891.31;5091935;28;20628;-74
2022/05/18 08:53:59;;;;;;;11.43;7.13;;;;;;;19.94;100.00;62932.94;5091779;28;20275;-73
2022/05/18 08:56:33;;;;;;;8.13;7.00;;;;;;;20.02;100.00;62944.19;5091767;28;20260;-72
2022/05/18 08:59:02;;;;;;;10.60;7.40;;;;;;;20.13;100.00;62954.00;5091784;28;20278;-76
2022/05/18 09:01:40;;;;;;;13.20;6.53;;;;;;;19.86;100.00;62924.28;5091507;28;20662;-73
2022/05/18 09:04:10;;;;;;;14.10;7.37;;;;;;;19.69;100.00;62905.91;5091354;28;20197;-74
2022/05/18 09:06:41;;;;;;;8.30;6.97;;;;;;;19.80;100.00;62917.81;5091431;28;20200;-72
2022/05/18 09:11:58;;;;;;;8.63;6.73;;;;;;;19.51;100.00;62889.59;5091524;28;20202;-74
2022/05/18 09:14:32;;;;;;;6.60;6.00;;;;;;;19.61;100.00;62897.25;5091731;28;20658;-73
2022/05/18 09:17:11;;;;;;;8.13;7.33;;;;;;;19.87;100.00;62925.34;5091302;28;20203;-75
2022/05/18 09:19:46;;;;;;;7.00;6.30;;;;;;;20.12;100.00;62952.41;5091595;28;20195;-73
2022/05/18 09:22:23;;;;;;;6.70;6.10;;;;;;;20.33;100.00;62975.13;5091597;28;20245;-73
2022/05/18 09:25:00;;;;;;;7.77;6.10;;;;;;;20.24;100.00;62965.38;5091191;28;20199;-73
2022/05/18 09:27:50;;;;;;;7.63;6.23;;;;;;;20.09;100.00;62949.16;5091317;28;20201;-72
2022/05/18 09:30:22;;;;;;;7.37;5.73;;;;;;;21.14;100.00;63061.66;5091718;28;20234;-73
2022/05/18 09:33:21;;;;;;;7.47;6.07;;;;;;;20.95;100.00;63047.34;5091107;28;20219;-73
2022/05/18 09:36:30;;;;;;;6.40;5.73;;;;;;;20.68;100.00;63012.44;5095319;28;20199;-73
2022/05/18 09:39:03;;;;;;;11.10;5.80;;;;;;;20.57;100.00;63001.06;5088567;28;20205;-73
2022/05/18 09:41:35;;;;;;;8.33;5.63;;;;;;;20.59;100.00;63000.09;5095472;28;20261;-74
2022/05/18 09:44:10;;;;;;;6.53;5.83;;;;;;;20.72;100.00;63012.13;5095266;28;20659;-73
2022/05/18 09:46:39;;;;;;;8.80;6.20;;;;;;;20.65;100.00;63011.75;5094994;28;20229;-74
2022/05/18 09:49:17;;;;;;;5.70;5.17;;;;;;;20.26;100.00;62967.00;5094687;28;20235;-74
2022/05/18 09:51:46;;;;;;;5.80;5.17;;;;;;;19.47;100.00;62882.69;5094979;28;20203;-74
2022/05/18 09:54:13;;;;;;;6.67;5.97;;;;;;;19.16;100.00;62852.28;5094852;28;20207;-73
2022/05/18 09:56:47;;;;;;;8.20;6.67;;;;;;;19.52;100.00;62892.72;5094788;28;20195;-74
2022/05/18 09:59:19;;;;;;;9.27;7.13;;;;;;;19.32;100.00;62866.44;5095119;28;20200;-74
2022/05/18 10:07:31;;;;;;;15.03;5.70;;;;;;;18.23;100.00;62749.81;5095209;28;20611;-76
2022/05/18 10:10:11;;;;;;;9.77;5.43;;;;;;;18.07;100.00;62732.00;5096481;28;20249;-75
2022/05/18 10:12:46;;;;;;;13.27;6.57;;;;;;;17.44;100.00;62662.53;5094979;28;20199;-76
2022/05/18 10:15:28;;;;;;;8.97;6.53;;;;;;;17.16;100.00;62634.38;5094934;28;20195;-76
2022/05/18 10:17:57;;;;;;;15.67;7.80;;;;;;;17.00;100.00;62617.66;5095060;28;20206;-73
2022/05/18 10:20:30;;;;;;;14.90;8.77;;;;;;;16.96;100.00;62613.34;5095055;28;20207;-77
2022/05/18 10:22:59;;;;;;;8.93;7.83;;;;;;;16.95;100.00;62617.41;5094890;28;20268;-76
2022/05/18 10:25:32;;;;;;;9.67;8.67;;;;;;;17.02;100.00;62619.81;5094665;28;20196;-76
2022/05/18 10:28:02;;;;;;;22.43;18.43;;;;;;;16.93;100.00;62615.25;5094281;28;20199;-74
2022/05/18 10:30:37;;;;;;;14.80;9.77;;;;;;;17.07;100.00;62625.19;5093716;28;20227;-77
2022/05/18 10:33:08;;;;;;;13.83;7.80;;;;;;;17.02;100.00;62619.28;5094380;28;20215;-78
2022/05/18 10:35:47;;;;;;;19.63;8.53;;;;;;;17.10;100.00;62625.88;5094664;28;20661;-75
2022/05/18 10:38:22;;;;;;;10.40;8.20;;;;;;;17.09;100.00;62627.34;5093594;28;20202;-74
2022/05/18 10:40:50;;;;;;;8.60;6.63;;;;;;;16.95;100.00;62612.25;5094642;28;20631;-75
2022/05/18 10:43:40;;;;;;;5.97;5.37;;;;;;;16.87;100.00;62603.66;5094191;28;20200;-76
2022/05/18 10:46:11;;;;;;;6.73;5.60;;;;;;;16.92;100.00;62608.50;5093445;28;20196;-76
2022/05/18 10:48:40;;;;;;;10.63;5.93;;;;;;;17.14;100.00;62632.75;5104217;28;20203;-73
2022/05/18 10:51:11;;;;;;;11.77;6.33;;;;;;;17.33;100.00;62653.22;5095913;28;20276;-73
2022/05/18 10:53:40;;;;;;;9.00;6.37;;;;;;;17.46;100.00;62664.69;5094614;28;20192;-73
2022/05/18 10:56:12;;;;;;;9.53;6.77;;;;;;;17.55;100.00;62676.97;5094387;28;20207;-73
2022/05/18 10:58:43;;;;;;;10.57;5.57;;;;;;;17.65;100.00;62687.78;5075701;28;20200;-75
2022/05/18 11:01:15;;;;;;;3.77;2.90;;;;;;;17.64;100.00;62689.28;5094176;28;20207;-75
2022/05/18 11:03:51;;;;;;;2.60;2.40;;;;;;;17.75;100.00;62697.50;5094145;28;20195;-75
2022/05/18 11:06:24;;;;;;;2.83;2.53;;;;;;;17.56;100.00;62674.94;5093767;28;20666;-74
2022/05/18 11:08:52;;;;;;;3.80;2.33;;;;;;;17.51;100.00;62672.66;5093715;28;20289;-72
2022/05/18 11:11:28;;;;;;;2.50;2.30;;;;;;;17.48;100.00;62669.41;5093223;28;20658;-74
2022/05/18 11:14:09;;;;;;;4.53;1.50;;;;;;;17.43;100.00;62663.47;5093414;28;20196;-73
2022/05/18 11:16:46;;;;;;;2.50;1.30;;;;;;;17.43;100.00;62658.31;5093940;28;20200;-73
2022/05/18 11:19:33;;;;;;;1.43;1.33;;;;;;;17.40;100.00;62657.69;5093435;28;20199;-74
2022/05/18 11:22:19;;;;;;;1.30;1.20;;;;;;;17.28;100.00;62647.84;5093321;28;20264;-74
2022/05/18 11:25:03;;;;;;;1.20;1.10;;;;;;;17.40;100.00;62663.38;5093325;28;20199;-74
2022/05/18 11:27:38;;;;;;;1.30;1.20;;;;;;;17.37;100.00;62654.44;5093470;28;20293;-73
2022/05/18 11:30:08;;;;;;;1.40;1.30;;;;;;;17.30;100.00;62649.47;5093373;28;20802;-72
2022/05/18 11:32:51;;;;;;;1.93;1.40;;;;;;;17.24;100.00;62643.53;5093736;28;20219;-73
2022/05/18 11:35:32;;;;;;;2.63;1.50;;;;;;;17.21;100.00;62642.88;5093623;28;20199;-73
2022/05/18 11:38:26;;;;;;;1.30;1.20;;;;;;;17.27;100.00;62644.19;5093019;28;20257;-73
2022/05/18 11:41:08;;;;;;;3.03;1.33;;;;;;;17.25;100.00;62644.59;5093373;28;20231;-74
2022/05/18 11:43:48;;;;;;;2.70;1.00;;;;;;;17.22;100.00;62646.53;5092870;28;20268;-73
2022/05/18 11:46:47;;;;;;;1.87;0.90;;;;;;;17.44;100.00;62665.09;5093012;28;20678;-74
2022/05/18 11:49:20;;;;;;;0.90;0.90;;;;;;;17.31;100.00;62651.06;5058900;28;20240;-73
2022/05/18 11:52:22;;;;;;;1.07;1.03;;;;;;;17.16;100.00;62634.91;5092850;28;20200;-73
2022/05/18 11:55:10;;;;;;;1.10;1.03;;;;;;;17.10;100.00;62628.44;5092500;28;20323;-72